Sioux Lookout, Canada
Current Conditions -  °F | °C
As of 3:00 PM on Friday 28 Nov 2014 (Local Time) from CYXL Reporting Station
Broken Clouds Broken Clouds  
Wind Chill:   Ceiling: 12000
Heat Index:   Visibility: 15mi
Dew Point: -4°   Wind: 3mph
Humidity: 57%   Direction: 110°ESE
Pressure: 29.95"   Gusts: NA
Location:  50.1°N, 91.92°W
Report Text: CYXL 282100Z 11003KT 050V140 15SM BKN120 BKN210 M13/M20 A2995 RMK AC5CI2 SLP182
Loading
Personal Weather Stations






























Interactive Weather Map New forecast layout! Learn more

10-Day Weather Forecast

Advertisements
Track Severe Weather on mobile